Time;durP1;ratioP1;P1;durP2;ratioP2;P2;SDS_P1;SDS_P2;PMS_P1;PMS_P2;Temp;Humidity;BMP_temperature;BMP_pressure;BME280_temperature;BME280_humidity;BME280_pressure;Samples;Min_cycle;Max_cycle;Signal;HPM_P1;HPM_P2
2022/08/26 00:00:53;;;;;;;0.50;0.50;;;;;;;;;;5133162;27;20196;-62
2022/08/26 00:03:40;;;;;;;0.50;0.50;;;;;;;;;;5143240;27;20215;-61
2022/08/26 00:06:29;;;;;;;0.47;0.47;;;;;;;;;;5129424;27;20224;-62
2022/08/26 00:09:16;;;;;;;0.55;0.55;;;;;;;;;;5131560;27;20218;-61
2022/08/26 00:12:04;;;;;;;0.70;0.70;;;;;;;;;;5137592;27;20230;-62
2022/08/26 00:14:51;;;;;;;0.43;0.43;;;;;;;;;;5136063;27;20212;-62
2022/08/26 00:17:38;;;;;;;0.77;0.77;;;;;;;;;;5133026;27;20197;-62
2022/08/26 00:20:28;;;;;;;0.55;0.55;;;;;;;;;;5133144;27;20208;-62
2022/08/26 00:23:17;;;;;;;0.57;0.57;;;;;;;;;;5133978;27;20200;-61
2022/08/26 00:26:05;;;;;;;0.52;0.52;;;;;;;;;;5139484;27;20212;-62
2022/08/26 00:28:53;;;;;;;0.50;0.50;;;;;;;;;;5133123;27;20204;-62
2022/08/26 00:31:40;;;;;;;0.70;0.70;;;;;;;;;;5131529;27;20233;-62
2022/08/26 00:34:27;;;;;;;0.43;0.43;;;;;;;;;;5129600;27;21047;-62
2022/08/26 00:37:15;;;;;;;0.40;0.40;;;;;;;;;;5140022;27;20215;-62
2022/08/26 00:40:04;;;;;;;0.43;0.43;;;;;;;;;;5129892;27;20204;-62
2022/08/26 00:42:51;;;;;;;0.40;0.40;;;;;;;;;;5143936;27;20223;-62
2022/08/26 00:45:43;;;;;;;0.50;0.50;;;;;;;;;;5129656;27;20660;-62
2022/08/26 00:48:32;;;;;;;0.52;0.52;;;;;;;;;;5140547;27;20208;-63
2022/08/26 00:51:23;;;;;;;0.80;0.50;;;;;;;;;;5132204;27;20222;-62
2022/08/26 00:54:10;;;;;;;0.60;0.60;;;;;;;;;;5136571;27;20207;-62
2022/08/26 00:57:02;;;;;;;0.82;0.60;;;;;;;;;;5132924;27;20709;-62
2022/08/26 00:59:54;;;;;;;0.45;0.45;;;;;;;;;;5128066;27;20211;-62
2022/08/26 01:02:43;;;;;;;0.50;0.50;;;;;;;;;;5135073;27;20284;-62
2022/08/26 01:05:30;;;;;;;0.57;0.55;;;;;;;;;;5129081;27;20235;-62
2022/08/26 01:08:17;;;;;;;0.40;0.40;;;;;;;;;;5134051;27;20786;-62
2022/08/26 01:11:05;;;;;;;0.50;0.50;;;;;;;;;;5131468;27;20227;-62
2022/08/26 01:13:58;;;;;;;0.50;0.50;;;;;;;;;;5140040;27;20206;-62
2022/08/26 01:16:45;;;;;;;0.52;0.52;;;;;;;;;;5137353;27;20213;-62
2022/08/26 01:19:37;;;;;;;0.50;0.50;;;;;;;;;;5137501;27;20208;-62
2022/08/26 01:22:31;;;;;;;0.55;0.55;;;;;;;;;;5134078;27;20208;-62
2022/08/26 01:25:20;;;;;;;0.60;0.60;;;;;;;;;;5128548;28;20236;-62
2022/08/26 01:28:12;;;;;;;0.57;0.57;;;;;;;;;;5129771;28;20273;-62
2022/08/26 01:31:02;;;;;;;0.50;0.50;;;;;;;;;;5132470;27;20225;-62
2022/08/26 01:33:57;;;;;;;0.50;0.50;;;;;;;;;;5127785;27;20248;-62
2022/08/26 01:36:44;;;;;;;0.60;0.60;;;;;;;;;;5129843;27;20237;-62
2022/08/26 01:39:33;;;;;;;0.40;0.40;;;;;;;;;;5133677;27;20558;-62
2022/08/26 01:42:23;;;;;;;0.90;0.50;;;;;;;;;;5144273;27;20280;-62
2022/08/26 01:45:14;;;;;;;0.50;0.50;;;;;;;;;;5129682;27;20210;-62
2022/08/26 01:48:04;;;;;;;0.55;0.55;;;;;;;;;;5127904;27;20213;-62
2022/08/26 01:50:52;;;;;;;0.40;0.40;;;;;;;;;;5128801;27;20907;-62
2022/08/26 01:53:41;;;;;;;0.40;0.40;;;;;;;;;;5134257;27;20223;-61
2022/08/26 01:56:28;;;;;;;0.43;0.43;;;;;;;;;;5132654;27;20208;-62
2022/08/26 01:59:18;;;;;;;0.40;0.40;;;;;;;;;;5140741;27;20201;-62
2022/08/26 02:02:06;;;;;;;0.38;0.38;;;;;;;;;;5128939;28;20208;-62
2022/08/26 02:04:57;;;;;;;0.40;0.40;;;;;;;;;;5132614;27;20578;-62
2022/08/26 02:07:45;;;;;;;0.65;0.50;;;;;;;;;;5136101;27;20238;-62
2022/08/26 02:10:32;;;;;;;0.60;0.60;;;;;;;;;;5133167;27;20668;-62
2022/08/26 02:13:19;;;;;;;0.70;0.70;;;;;;;;;;5139590;27;20228;-62
2022/08/26 02:16:08;;;;;;;0.95;0.80;;;;;;;;;;5139002;27;20219;-62
2022/08/26 02:18:57;;;;;;;0.60;0.50;;;;;;;;;;5139907;27;20250;-62
2022/08/26 02:21:46;;;;;;;0.40;0.40;;;;;;;;;;5133624;27;20211;-62
2022/08/26 02:24:47;;;;;;;0.60;0.60;;;;;;;;;;5134400;27;20586;-62
2022/08/26 02:27:35;;;;;;;0.60;0.60;;;;;;;;;;5131936;27;20315;-62
2022/08/26 02:30:25;;;;;;;0.98;0.57;;;;;;;;;;5142218;27;20283;-62
2022/08/26 02:33:13;;;;;;;0.50;0.50;;;;;;;;;;5135452;27;20276;-62
2022/08/26 02:36:00;;;;;;;0.70;0.57;;;;;;;;;;5138613;27;20294;-62
2022/08/26 02:38:47;;;;;;;0.67;0.67;;;;;;;;;;5134991;27;20265;-62
2022/08/26 02:41:35;;;;;;;0.70;0.70;;;;;;;;;;5143402;27;20207;-62
2022/08/26 02:44:22;;;;;;;0.50;0.50;;;;;;;;;;5131860;27;20206;-62
2022/08/26 02:47:09;;;;;;;0.50;0.50;;;;;;;;;;5135650;27;20239;-62
2022/08/26 02:49:57;;;;;;;0.70;0.70;;;;;;;;;;5132836;27;20208;-62
2022/08/26 02:52:44;;;;;;;0.65;0.65;;;;;;;;;;5141426;27;20204;-62
2022/08/26 02:55:31;;;;;;;0.65;0.65;;;;;;;;;;5136788;27;20694;-62
2022/08/26 02:58:18;;;;;;;0.68;0.68;;;;;;;;;;5134089;27;20673;-61
2022/08/26 03:01:05;;;;;;;0.60;0.60;;;;;;;;;;5139577;27;20202;-62
2022/08/26 03:03:53;;;;;;;0.55;0.55;;;;;;;;;;5137183;27;20749;-63
2022/08/26 03:06:41;;;;;;;0.70;0.70;;;;;;;;;;5132228;27;20251;-62
2022/08/26 03:09:28;;;;;;;0.60;0.60;;;;;;;;;;5139894;27;20211;-62
2022/08/26 03:12:15;;;;;;;0.70;0.70;;;;;;;;;;5135782;27;20257;-62
2022/08/26 03:15:03;;;;;;;0.60;0.60;;;;;;;;;;5134326;27;20212;-61
2022/08/26 03:17:50;;;;;;;0.75;0.75;;;;;;;;;;5137239;27;20208;-62
2022/08/26 03:20:37;;;;;;;0.80;0.80;;;;;;;;;;5132229;27;20290;-62
2022/08/26 03:23:25;;;;;;;0.73;0.73;;;;;;;;;;5138739;27;20198;-62
2022/08/26 03:26:14;;;;;;;0.90;0.90;;;;;;;;;;5131360;27;20295;-62
2022/08/26 03:32:05;;;;;;;0.70;0.70;;;;;;;;;;5133375;27;20561;-61
2022/08/26 03:34:52;;;;;;;0.90;0.90;;;;;;;;;;5138020;27;20207;-62
2022/08/26 03:37:39;;;;;;;0.70;0.70;;;;;;;;;;5134172;27;20648;-62
2022/08/26 03:40:28;;;;;;;0.77;0.77;;;;;;;;;;5139719;27;20728;-62
2022/08/26 03:43:16;;;;;;;0.77;0.77;;;;;;;;;;5139683;27;20281;-63
2022/08/26 03:46:05;;;;;;;1.23;1.10;;;;;;;;;;5133030;27;20233;-62
2022/08/26 03:48:52;;;;;;;1.00;1.00;;;;;;;;;;5130876;27;20216;-62
2022/08/26 03:51:39;;;;;;;0.80;0.80;;;;;;;;;;5136179;27;20229;-62
2022/08/26 03:54:26;;;;;;;0.80;0.80;;;;;;;;;;5129770;27;20201;-62
2022/08/26 03:57:14;;;;;;;1.13;0.83;;;;;;;;;;5145275;27;20210;-62
2022/08/26 04:00:01;;;;;;;1.00;1.00;;;;;;;;;;5131251;27;20212;-63
2022/08/26 04:02:49;;;;;;;0.60;0.60;;;;;;;;;;5140412;27;20210;-62
2022/08/26 04:05:36;;;;;;;0.93;0.93;;;;;;;;;;5135797;27;20703;-62
2022/08/26 04:08:23;;;;;;;0.93;0.93;;;;;;;;;;5133127;27;20711;-62
2022/08/26 04:11:17;;;;;;;0.90;0.90;;;;;;;;;;5130194;27;20222;-63
2022/08/26 04:14:08;;;;;;;0.67;0.67;;;;;;;;;;5143698;27;20249;-61
2022/08/26 04:16:55;;;;;;;0.98;0.98;;;;;;;;;;5130248;27;20237;-62
2022/08/26 04:19:42;;;;;;;0.93;0.87;;;;;;;;;;5141323;27;20285;-61
2022/08/26 04:22:29;;;;;;;0.73;0.73;;;;;;;;;;5132499;27;20290;-62
2022/08/26 04:25:18;;;;;;;1.27;1.17;;;;;;;;;;5141655;27;20205;-61
2022/08/26 04:28:05;;;;;;;1.33;1.00;;;;;;;;;;5136935;27;20203;-62
2022/08/26 04:30:54;;;;;;;0.77;0.77;;;;;;;;;;5141988;27;20207;-62
2022/08/26 04:33:41;;;;;;;1.23;0.83;;;;;;;;;;5131651;27;20237;-62
2022/08/26 04:36:28;;;;;;;1.00;1.00;;;;;;;;;;5137490;27;20206;-62
2022/08/26 04:39:16;;;;;;;0.90;0.90;;;;;;;;;;5138231;27;20206;-62
2022/08/26 04:42:04;;;;;;;1.17;1.00;;;;;;;;;;5130456;27;20206;-62
2022/08/26 04:44:51;;;;;;;1.77;1.00;;;;;;;;;;5129877;27;20215;-62
2022/08/26 04:47:39;;;;;;;1.30;1.20;;;;;;;;;;5140325;27;20203;-62
2022/08/26 04:50:26;;;;;;;1.33;1.23;;;;;;;;;;5130753;27;20203;-62
2022/08/26 04:53:13;;;;;;;1.00;1.00;;;;;;;;;;5137383;27;20696;-62
2022/08/26 04:56:01;;;;;;;0.90;0.90;;;;;;;;;;5142239;27;20209;-62
2022/08/26 04:58:48;;;;;;;1.00;1.00;;;;;;;;;;5132299;27;20624;-62
2022/08/26 05:01:35;;;;;;;1.10;1.10;;;;;;;;;;5133368;27;20292;-62
2022/08/26 05:04:24;;;;;;;1.10;1.05;;;;;;;;;;5129747;27;20208;-62
2022/08/26 05:07:11;;;;;;;0.90;0.90;;;;;;;;;;5132674;27;20257;-62
2022/08/26 05:09:59;;;;;;;0.93;0.93;;;;;;;;;;5131261;27;20225;-62
2022/08/26 05:12:45;;;;;;;0.80;0.80;;;;;;;;;;5138723;27;20280;-62
2022/08/26 05:15:34;;;;;;;1.20;1.10;;;;;;;;;;5127625;27;20293;-62
2022/08/26 05:18:23;;;;;;;1.10;1.10;;;;;;;;;;5132339;27;20206;-61
2022/08/26 05:21:19;;;;;;;1.30;1.15;;;;;;;;;;5128602;27;20281;-62
2022/08/26 05:24:06;;;;;;;1.05;1.05;;;;;;;;;;5138336;27;20213;-62
2022/08/26 05:26:53;;;;;;;0.95;0.90;;;;;;;;;;5133730;27;20222;-62
2022/08/26 05:29:41;;;;;;;0.95;0.95;;;;;;;;;;5130285;28;20211;-62
2022/08/26 05:32:28;;;;;;;1.30;1.20;;;;;;;;;;5129870;27;20228;-61
2022/08/26 05:35:15;;;;;;;1.13;1.02;;;;;;;;;;5144279;27;20221;-61
2022/08/26 05:38:06;;;;;;;1.05;0.95;;;;;;;;;;5133803;27;20746;-62
2022/08/26 05:40:52;;;;;;;0.90;0.90;;;;;;;;;;5139934;27;20265;-62
2022/08/26 05:43:39;;;;;;;1.15;1.10;;;;;;;;;;5129795;28;20298;-62
2022/08/26 05:46:27;;;;;;;0.93;0.93;;;;;;;;;;5131109;27;20212;-61
2022/08/26 05:49:15;;;;;;;1.10;1.10;;;;;;;;;;5129733;27;20210;-62
2022/08/26 05:52:02;;;;;;;0.80;0.80;;;;;;;;;;5147267;27;20238;-62
2022/08/26 05:54:51;;;;;;;1.35;1.00;;;;;;;;;;5138093;27;20204;-62
2022/08/26 05:57:38;;;;;;;1.00;1.00;;;;;;;;;;5144284;27;20222;-62
2022/08/26 06:00:25;;;;;;;1.15;1.15;;;;;;;;;;5134120;27;20227;-61
2022/08/26 06:03:12;;;;;;;0.85;0.85;;;;;;;;;;5132794;27;20207;-62
2022/08/26 06:05:59;;;;;;;1.02;1.02;;;;;;;;;;5134171;27;20318;-62
2022/08/26 06:08:47;;;;;;;0.82;0.82;;;;;;;;;;5132747;27;20207;-62
2022/08/26 06:11:35;;;;;;;1.05;0.95;;;;;;;;;;5140216;27;20211;-62
2022/08/26 06:14:24;;;;;;;0.93;0.75;;;;;;;;;;5141140;27;20261;-61
2022/08/26 06:17:11;;;;;;;0.82;0.82;;;;;;;;;;5135938;27;20534;-62
2022/08/26 06:19:58;;;;;;;0.95;0.90;;;;;;;;;;5141834;27;20205;-61
2022/08/26 06:25:51;;;;;;;1.05;1.05;;;;;;;;;;5138692;27;20641;-62
2022/08/26 06:28:39;;;;;;;1.00;1.00;;;;;;;;;;5142843;27;20685;-61
2022/08/26 06:31:26;;;;;;;0.93;0.93;;;;;;;;;;5134547;27;20266;-61
2022/08/26 06:34:14;;;;;;;1.00;1.00;;;;;;;;;;5139904;27;20215;-62
2022/08/26 06:37:02;;;;;;;0.85;0.85;;;;;;;;;;5132559;27;20202;-62
2022/08/26 06:39:49;;;;;;;0.90;0.90;;;;;;;;;;5147785;27;20285;-64
2022/08/26 06:42:36;;;;;;;1.10;1.10;;;;;;;;;;5117906;27;20212;-62
2022/08/26 06:45:25;;;;;;;1.27;0.80;;;;;;;;;;5128013;27;20205;-62
2022/08/26 06:48:13;;;;;;;0.82;0.75;;;;;;;;;;5128441;27;20290;-61
2022/08/26 06:51:05;;;;;;;1.10;1.00;;;;;;;;;;5132172;27;20361;-62
2022/08/26 06:53:54;;;;;;;1.10;1.10;;;;;;;;;;5125577;27;20282;-62
2022/08/26 06:56:43;;;;;;;0.80;0.80;;;;;;;;;;5133715;27;20207;-61
2022/08/26 06:59:30;;;;;;;1.03;1.00;;;;;;;;;;5131683;27;20211;-62
2022/08/26 07:02:19;;;;;;;1.30;1.20;;;;;;;;;;5131229;27;20209;-62
2022/08/26 07:05:07;;;;;;;1.08;1.08;;;;;;;;;;5133440;27;20214;-62
2022/08/26 07:07:55;;;;;;;1.88;1.10;;;;;;;;;;5125349;27;20239;-61
2022/08/26 07:10:42;;;;;;;1.00;1.00;;;;;;;;;;5134270;27;20211;-62
2022/08/26 07:13:29;;;;;;;1.02;1.02;;;;;;;;;;5129276;27;20588;-62
2022/08/26 07:16:17;;;;;;;0.60;0.60;;;;;;;;;;5130990;27;20348;-61
2022/08/26 07:19:05;;;;;;;1.00;1.00;;;;;;;;;;5128568;27;20279;-62
2022/08/26 07:21:52;;;;;;;1.50;0.90;;;;;;;;;;5128637;27;20216;-62
2022/08/26 07:24:40;;;;;;;0.93;0.85;;;;;;;;;;5140612;27;20245;-62
2022/08/26 07:27:27;;;;;;;0.90;0.90;;;;;;;;;;5130627;27;20204;-62
2022/08/26 07:30:14;;;;;;;1.48;1.10;;;;;;;;;;5132390;27;20730;-62
2022/08/26 07:33:02;;;;;;;1.27;0.95;;;;;;;;;;5133453;27;20304;-62
2022/08/26 07:35:50;;;;;;;1.25;1.17;;;;;;;;;;5129889;27;20232;-61
2022/08/26 07:38:38;;;;;;;1.00;1.00;;;;;;;;;;5138586;27;20211;-62
2022/08/26 07:41:26;;;;;;;1.10;1.10;;;;;;;;;;5131185;27;20335;-62
2022/08/26 07:44:13;;;;;;;1.30;1.00;;;;;;;;;;5140941;27;20198;-62
2022/08/26 07:47:00;;;;;;;0.85;0.85;;;;;;;;;;5131764;27;20691;-63
2022/08/26 07:49:47;;;;;;;0.90;0.90;;;;;;;;;;5132994;27;20687;-62
2022/08/26 07:52:36;;;;;;;1.10;1.10;;;;;;;;;;5132061;27;20231;-62
2022/08/26 07:55:23;;;;;;;1.00;1.00;;;;;;;;;;5134692;27;20294;-62
2022/08/26 07:58:10;;;;;;;1.00;1.00;;;;;;;;;;5130367;27;20266;-62
2022/08/26 08:00:57;;;;;;;1.00;1.00;;;;;;;;;;5141278;27;20208;-62
2022/08/26 08:03:44;;;;;;;1.15;1.15;;;;;;;;;;5132429;27;20204;-62
2022/08/26 08:06:32;;;;;;;0.98;0.98;;;;;;;;;;5130002;27;20227;-62
2022/08/26 08:09:22;;;;;;;1.00;1.00;;;;;;;;;;5131872;27;20280;-62
2022/08/26 08:12:08;;;;;;;1.00;1.00;;;;;;;;;;5131609;27;20198;-62
2022/08/26 08:14:55;;;;;;;1.52;1.05;;;;;;;;;;5130569;27;20213;-62
2022/08/26 08:17:43;;;;;;;0.82;0.82;;;;;;;;;;5140705;27;20571;-62
2022/08/26 08:20:30;;;;;;;1.13;1.08;;;;;;;;;;5133334;27;20197;-63
2022/08/26 08:23:17;;;;;;;0.88;0.88;;;;;;;;;;5135748;27;20201;-62
2022/08/26 08:26:07;;;;;;;1.00;1.00;;;;;;;;;;5137127;27;20680;-61
2022/08/26 08:28:55;;;;;;;1.10;1.10;;;;;;;;;;5139739;27;20291;-62
2022/08/26 08:31:42;;;;;;;1.23;1.20;;;;;;;;;;5132909;27;20225;-62
2022/08/26 08:34:29;;;;;;;1.10;1.10;;;;;;;;;;5137862;27;20219;-62
2022/08/26 08:37:16;;;;;;;0.80;0.80;;;;;;;;;;5130395;27;20582;-62
2022/08/26 08:40:05;;;;;;;1.20;1.20;;;;;;;;;;5131654;27;20205;-62
2022/08/26 08:42:58;;;;;;;0.88;0.88;;;;;;;;;;5139357;27;20201;-62
2022/08/26 08:45:48;;;;;;;0.80;0.80;;;;;;;;;;5131130;27;20213;-62
2022/08/26 08:48:38;;;;;;;0.75;0.75;;;;;;;;;;5130827;27;20230;-62
2022/08/26 08:51:33;;;;;;;0.80;0.80;;;;;;;;;;5129902;27;20694;-61
2022/08/26 08:54:21;;;;;;;1.25;0.80;;;;;;;;;;5130557;27;20274;-61
2022/08/26 08:57:12;;;;;;;0.90;0.90;;;;;;;;;;5131320;27;20206;-63
2022/08/26 09:00:09;;;;;;;0.80;0.80;;;;;;;;;;5138062;27;20208;-62
2022/08/26 09:03:01;;;;;;;0.80;0.80;;;;;;;;;;5127039;27;20727;-62
2022/08/26 09:05:51;;;;;;;0.80;0.80;;;;;;;;;;5138252;27;20321;-61
2022/08/26 09:08:39;;;;;;;0.90;0.90;;;;;;;;;;5130430;27;20236;-62
2022/08/26 09:11:27;;;;;;;1.08;0.80;;;;;;;;;;5138726;27;20205;-64
2022/08/26 09:14:14;;;;;;;0.82;0.82;;;;;;;;;;5130148;27;20513;-62
2022/08/26 09:17:09;;;;;;;0.82;0.82;;;;;;;;;;5139794;27;20617;-62
2022/08/26 09:20:06;;;;;;;0.70;0.70;;;;;;;;;;5129674;28;20205;-62
2022/08/26 09:22:53;;;;;;;0.82;0.82;;;;;;;;;;5134883;27;21161;-63
2022/08/26 09:25:49;;;;;;;1.00;1.00;;;;;;;;;;5138636;27;20201;-62
2022/08/26 09:28:35;;;;;;;0.90;0.90;;;;;;;;;;5134038;27;20279;-62
2022/08/26 09:31:26;;;;;;;1.00;1.00;;;;;;;;;;5137308;27;20250;-62
2022/08/26 09:34:16;;;;;;;0.88;0.88;;;;;;;;;;5134943;27;20229;-62
2022/08/26 09:37:03;;;;;;;0.98;0.98;;;;;;;;;;5136489;27;20213;-62
2022/08/26 09:39:50;;;;;;;1.02;1.00;;;;;;;;;;5136428;27;20694;-61
2022/08/26 09:42:37;;;;;;;1.10;1.10;;;;;;;;;;5137487;27;20671;-62
2022/08/26 09:45:28;;;;;;;1.10;1.10;;;;;;;;;;5134427;27;20272;-62
2022/08/26 09:48:26;;;;;;;0.68;0.68;;;;;;;;;;5133259;27;20216;-62
2022/08/26 09:51:28;;;;;;;0.93;0.93;;;;;;;;;;5136000;27;20201;-62
2022/08/26 09:54:25;;;;;;;0.70;0.70;;;;;;;;;;5134340;27;20259;-61
2022/08/26 09:57:19;;;;;;;1.00;1.00;;;;;;;;;;5133171;27;20220;-62
2022/08/26 10:00:24;;;;;;;0.98;0.90;;;;;;;;;;5141091;27;20208;-62
2022/08/26 10:03:22;;;;;;;0.70;0.70;;;;;;;;;;5138724;27;20806;-62
2022/08/26 10:06:22;;;;;;;0.95;0.95;;;;;;;;;;5132211;27;20229;-62
2022/08/26 10:09:13;;;;;;;0.85;0.85;;;;;;;;;;5136993;27;20216;-62
2022/08/26 10:12:03;;;;;;;0.98;0.98;;;;;;;;;;5132406;27;20289;-63
2022/08/26 10:14:54;;;;;;;0.70;0.70;;;;;;;;;;5133140;27;20225;-62
2022/08/26 10:17:48;;;;;;;0.95;0.95;;;;;;;;;;5137994;27;20205;-62
2022/08/26 10:20:37;;;;;;;0.70;0.70;;;;;;;;;;5132691;27;20213;-62
2022/08/26 10:23:27;;;;;;;1.27;0.70;;;;;;;;;;5144345;27;20198;-63
2022/08/26 10:26:20;;;;;;;0.60;0.60;;;;;;;;;;5136116;27;20309;-64
2022/08/26 10:29:13;;;;;;;0.93;0.93;;;;;;;;;;5134456;27;20209;-62
2022/08/26 10:32:04;;;;;;;0.80;0.80;;;;;;;;;;5133108;27;20212;-61
2022/08/26 10:34:51;;;;;;;0.80;0.80;;;;;;;;;;5136233;27;20833;-62
2022/08/26 10:37:41;;;;;;;0.98;0.70;;;;;;;;;;5143508;27;20200;-62
2022/08/26 10:40:42;;;;;;;0.77;0.77;;;;;;;;;;5133606;27;20586;-62
2022/08/26 10:43:35;;;;;;;1.00;1.00;;;;;;;;;;5135813;27;20686;-62
2022/08/26 10:46:27;;;;;;;0.70;0.70;;;;;;;;;;5137249;27;20284;-62
2022/08/26 10:49:16;;;;;;;0.80;0.80;;;;;;;;;;5141566;27;20699;-62
2022/08/26 10:52:11;;;;;;;0.90;0.90;;;;;;;;;;5131817;27;20204;-62
2022/08/26 10:55:04;;;;;;;1.00;1.00;;;;;;;;;;5130813;27;20269;-62
2022/08/26 10:57:57;;;;;;;0.68;0.68;;;;;;;;;;5129634;27;20567;-62
2022/08/26 11:04:04;;;;;;;0.98;0.98;;;;;;;;;;5136715;27;20200;-61
2022/08/26 11:07:24;;;;;;;0.90;0.90;;;;;;;;;;5130159;27;20229;-62
2022/08/26 11:11:03;;;;;;;0.63;0.63;;;;;;;;;;5135099;27;20266;-62
2022/08/26 11:14:04;;;;;;;0.80;0.80;;;;;;;;;;5132552;27;20225;-62
2022/08/26 11:16:53;;;;;;;0.70;0.70;;;;;;;;;;5131888;27;20201;-62
2022/08/26 11:20:01;;;;;;;0.60;0.60;;;;;;;;;;5132972;27;20319;-62
2022/08/26 11:22:49;;;;;;;0.73;0.73;;;;;;;;;;5132028;27;20208;-62
2022/08/26 11:26:13;;;;;;;0.80;0.80;;;;;;;;;;5132643;27;20213;-62
2022/08/26 11:29:00;;;;;;;0.70;0.70;;;;;;;;;;5133979;27;20258;-62
2022/08/26 11:31:56;;;;;;;0.70;0.70;;;;;;;;;;5122728;27;20209;-62
2022/08/26 11:34:56;;;;;;;0.60;0.60;;;;;;;;;;5131006;27;20232;-62
2022/08/26 11:37:48;;;;;;;0.80;0.80;;;;;;;;;;5128335;27;20211;-62
2022/08/26 11:40:38;;;;;;;1.02;0.77;;;;;;;;;;5130973;27;20236;-61
2022/08/26 11:43:26;;;;;;;0.82;0.82;;;;;;;;;;5131137;27;20201;-61
2022/08/26 11:46:24;;;;;;;0.85;0.85;;;;;;;;;;5130090;27;20205;-62
2022/08/26 11:49:13;;;;;;;0.90;0.90;;;;;;;;;;5132846;27;20210;-62
2022/08/26 11:52:12;;;;;;;0.88;0.88;;;;;;;;;;5129933;27;20239;-62
2022/08/26 11:55:00;;;;;;;0.70;0.70;;;;;;;;;;5130587;27;20228;-62
2022/08/26 11:57:50;;;;;;;0.90;0.90;;;;;;;;;;5129107;27;20193;-61
2022/08/26 12:00:51;;;;;;;0.88;0.88;;;;;;;;;;5131564;27;20328;-63
2022/08/26 12:03:41;;;;;;;0.70;0.70;;;;;;;;;;5131478;27;20403;-62
2022/08/26 12:06:32;;;;;;;0.70;0.70;;;;;;;;;;5130200;27;20226;-61
2022/08/26 12:09:23;;;;;;;0.80;0.80;;;;;;;;;;5131227;27;20204;-63
2022/08/26 12:12:12;;;;;;;0.73;0.73;;;;;;;;;;5126626;27;20265;-62
2022/08/26 12:15:12;;;;;;;0.90;0.90;;;;;;;;;;5129187;27;20225;-62
2022/08/26 12:18:18;;;;;;;1.20;1.20;;;;;;;;;;5128269;27;20294;-61
2022/08/26 12:21:14;;;;;;;0.90;0.90;;;;;;;;;;5139014;27;20208;-62
2022/08/26 12:24:04;;;;;;;0.60;0.60;;;;;;;;;;5126892;27;20481;-63
2022/08/26 12:27:10;;;;;;;0.65;0.65;;;;;;;;;;5129077;27;20280;-62
2022/08/26 12:30:02;;;;;;;0.70;0.70;;;;;;;;;;5131722;27;20349;-62
2022/08/26 12:32:51;;;;;;;0.60;0.60;;;;;;;;;;5132328;27;20236;-62
2022/08/26 12:35:39;;;;;;;0.70;0.70;;;;;;;;;;5127497;27;20220;-62
2022/08/26 12:38:27;;;;;;;0.68;0.68;;;;;;;;;;5139554;27;20209;-63
2022/08/26 12:41:41;;;;;;;1.05;1.05;;;;;;;;;;5131704;27;20204;-62
2022/08/26 12:44:37;;;;;;;0.90;0.90;;;;;;;;;;5129476;27;20205;-63
2022/08/26 12:47:28;;;;;;;1.00;0.93;;;;;;;;;;5138114;27;20196;-62
2022/08/26 12:50:19;;;;;;;0.70;0.70;;;;;;;;;;5128376;27;20209;-61
2022/08/26 12:53:20;;;;;;;0.70;0.70;;;;;;;;;;5129051;27;20274;-62
2022/08/26 12:56:20;;;;;;;0.75;0.75;;;;;;;;;;5130538;27;20778;-62
2022/08/26 12:59:21;;;;;;;1.00;1.00;;;;;;;;;;5130867;27;20240;-62
2022/08/26 13:02:08;;;;;;;1.08;0.77;;;;;;;;;;5126419;27;20660;-64
2022/08/26 13:04:58;;;;;;;1.13;1.02;;;;;;;;;;5126264;27;20563;-62
2022/08/26 13:08:09;;;;;;;0.80;0.80;;;;;;;;;;5125694;27;20239;-63
2022/08/26 13:11:05;;;;;;;0.90;0.90;;;;;;;;;;5124863;27;20254;-62
2022/08/26 13:13:54;;;;;;;0.98;0.98;;;;;;;;;;5131065;27;20221;-62
2022/08/26 13:16:44;;;;;;;0.80;0.80;;;;;;;;;;5131531;27;20212;-62
2022/08/26 13:19:31;;;;;;;0.95;0.95;;;;;;;;;;5131095;27;20281;-62
2022/08/26 13:22:22;;;;;;;1.00;1.00;;;;;;;;;;5126086;27;20299;-62
2022/08/26 13:25:10;;;;;;;0.90;0.90;;;;;;;;;;5127062;27;20203;-62
2022/08/26 13:27:57;;;;;;;0.90;0.90;;;;;;;;;;5134296;27;20201;-63
2022/08/26 13:30:46;;;;;;;0.70;0.70;;;;;;;;;;5131938;27;20734;-62
2022/08/26 13:33:36;;;;;;;0.98;0.98;;;;;;;;;;5132157;27;20292;-63
2022/08/26 13:36:23;;;;;;;0.93;0.93;;;;;;;;;;5128411;27;20200;-62
2022/08/26 13:39:10;;;;;;;1.00;1.00;;;;;;;;;;5128037;27;20562;-62
2022/08/26 13:41:58;;;;;;;1.00;1.00;;;;;;;;;;5132305;27;20519;-62
2022/08/26 13:44:49;;;;;;;0.75;0.75;;;;;;;;;;5128139;27;20202;-62
2022/08/26 13:47:36;;;;;;;0.90;0.90;;;;;;;;;;5134091;27;20291;-62
2022/08/26 13:50:24;;;;;;;1.15;1.15;;;;;;;;;;5127697;27;20205;-62
2022/08/26 13:53:13;;;;;;;0.60;0.60;;;;;;;;;;5138324;27;20209;-63
2022/08/26 13:56:01;;;;;;;1.05;1.05;;;;;;;;;;5128661;27;20632;-62
2022/08/26 13:58:48;;;;;;;0.90;0.90;;;;;;;;;;5131716;27;20197;-62
2022/08/26 14:01:38;;;;;;;1.00;1.00;;;;;;;;;;5132167;27;20577;-62
2022/08/26 14:04:25;;;;;;;1.15;1.15;;;;;;;;;;5134563;27;20585;-63
2022/08/26 14:07:14;;;;;;;0.90;0.90;;;;;;;;;;5129496;27;20232;-63
2022/08/26 14:10:01;;;;;;;1.27;1.17;;;;;;;;;;5142108;27;20205;-62
2022/08/26 14:12:48;;;;;;;0.82;0.70;;;;;;;;;;5137107;27;20202;-63
2022/08/26 14:15:37;;;;;;;0.98;0.98;;;;;;;;;;5148485;27;20269;-62
2022/08/26 14:18:31;;;;;;;0.80;0.80;;;;;;;;;;5140732;27;20209;-62
2022/08/26 14:21:19;;;;;;;1.00;1.00;;;;;;;;;;5142682;27;20373;-62
2022/08/26 14:24:07;;;;;;;1.38;0.88;;;;;;;;;;5138724;27;20621;-62
2022/08/26 14:26:54;;;;;;;0.90;0.90;;;;;;;;;;5133460;27;20618;-62
2022/08/26 14:29:41;;;;;;;1.13;1.13;;;;;;;;;;5134918;27;20571;-62
2022/08/26 14:32:30;;;;;;;1.08;1.08;;;;;;;;;;5142391;27;20200;-62
2022/08/26 14:35:20;;;;;;;1.08;1.08;;;;;;;;;;5133748;27;20217;-62
2022/08/26 14:38:07;;;;;;;0.90;0.90;;;;;;;;;;5137837;27;20213;-62
2022/08/26 14:40:56;;;;;;;2.58;1.23;;;;;;;;;;5137761;27;20275;-62
2022/08/26 14:43:47;;;;;;;1.05;1.05;;;;;;;;;;5137784;27;20290;-62
2022/08/26 14:46:39;;;;;;;0.90;0.90;;;;;;;;;;5142180;27;20211;-62
2022/08/26 14:49:27;;;;;;;0.90;0.90;;;;;;;;;;5130718;27;20197;-62
2022/08/26 14:52:14;;;;;;;1.08;1.00;;;;;;;;;;5140632;27;20201;-62
2022/08/26 14:55:00;;;;;;;0.82;0.82;;;;;;;;;;5131759;27;20352;-62
2022/08/26 14:57:48;;;;;;;0.70;0.70;;;;;;;;;;5133713;27;20768;-62
2022/08/26 15:00:35;;;;;;;0.95;0.95;;;;;;;;;;5134150;27;20680;-62
2022/08/26 15:03:22;;;;;;;0.80;0.80;;;;;;;;;;5132720;27;20201;-62
2022/08/26 15:06:10;;;;;;;0.90;0.90;;;;;;;;;;5125811;27;20228;-62
2022/08/26 15:08:57;;;;;;;0.70;0.70;;;;;;;;;;5140397;27;20657;-62
2022/08/26 15:11:44;;;;;;;0.90;0.90;;;;;;;;;;5129937;27;20802;-62
2022/08/26 15:14:33;;;;;;;1.00;1.00;;;;;;;;;;5131408;27;20224;-63
2022/08/26 15:17:20;;;;;;;0.80;0.80;;;;;;;;;;5131969;27;20282;-62
2022/08/26 15:20:08;;;;;;;0.80;0.80;;;;;;;;;;5137559;27;20195;-62
2022/08/26 15:22:55;;;;;;;0.77;0.77;;;;;;;;;;5131970;27;20313;-62
2022/08/26 15:25:42;;;;;;;1.05;1.05;;;;;;;;;;5138993;27;20280;-62
2022/08/26 15:28:29;;;;;;;1.10;1.10;;;;;;;;;;5132156;27;20288;-62
2022/08/26 15:31:18;;;;;;;0.98;0.98;;;;;;;;;;5144556;27;20260;-62
2022/08/26 15:34:07;;;;;;;0.90;0.90;;;;;;;;;;5132141;27;20213;-62
2022/08/26 15:36:54;;;;;;;0.80;0.80;;;;;;;;;;5139015;27;20198;-62
2022/08/26 15:39:41;;;;;;;0.55;0.55;;;;;;;;;;5131729;27;20301;-63
2022/08/26 15:42:28;;;;;;;0.80;0.80;;;;;;;;;;5133736;27;20208;-62
2022/08/26 15:45:15;;;;;;;0.95;0.95;;;;;;;;;;5136166;27;20201;-62
2022/08/26 15:48:04;;;;;;;1.70;0.80;;;;;;;;;;5137710;27;20208;-62
2022/08/26 15:50:54;;;;;;;0.90;0.90;;;;;;;;;;5133349;27;20702;-62
2022/08/26 15:53:41;;;;;;;0.93;0.82;;;;;;;;;;5134310;27;20233;-62
2022/08/26 15:56:30;;;;;;;0.90;0.90;;;;;;;;;;5134698;27;20225;-62
2022/08/26 15:59:17;;;;;;;0.70;0.70;;;;;;;;;;5131474;27;20734;-62
2022/08/26 16:02:05;;;;;;;0.90;0.90;;;;;;;;;;5130126;27;20223;-62
2022/08/26 16:04:53;;;;;;;0.73;0.73;;;;;;;;;;5129715;27;20668;-62
2022/08/26 16:07:40;;;;;;;1.33;1.23;;;;;;;;;;5137747;27;20336;-62
2022/08/26 16:10:27;;;;;;;0.90;0.90;;;;;;;;;;5131613;27;20279;-62
2022/08/26 16:13:14;;;;;;;0.90;0.90;;;;;;;;;;5137727;27;20216;-62
2022/08/26 16:16:01;;;;;;;0.90;0.90;;;;;;;;;;5129965;27;20318;-62
2022/08/26 16:18:49;;;;;;;0.80;0.80;;;;;;;;;;5134822;27;20233;-62
2022/08/26 16:21:37;;;;;;;0.73;0.73;;;;;;;;;;5134995;27;20692;-62
2022/08/26 16:24:24;;;;;;;0.70;0.70;;;;;;;;;;5127239;27;20276;-62
2022/08/26 16:27:11;;;;;;;0.98;0.98;;;;;;;;;;5123597;27;20214;-62
2022/08/26 16:29:58;;;;;;;0.90;0.90;;;;;;;;;;5132870;27;20219;-62
2022/08/26 16:32:46;;;;;;;0.80;0.80;;;;;;;;;;5125633;27;20205;-62
2022/08/26 16:35:33;;;;;;;0.63;0.63;;;;;;;;;;5127955;27;20215;-62
2022/08/26 16:38:21;;;;;;;0.70;0.70;;;;;;;;;;5132826;27;20291;-62
2022/08/26 16:41:08;;;;;;;0.80;0.80;;;;;;;;;;5139047;27;20261;-62
2022/08/26 16:43:55;;;;;;;0.80;0.80;;;;;;;;;;5130521;27;20196;-62
2022/08/26 16:46:44;;;;;;;0.68;0.68;;;;;;;;;;5130596;27;20197;-62
2022/08/26 16:49:31;;;;;;;1.00;1.00;;;;;;;;;;5132203;27;20568;-61
2022/08/26 16:52:18;;;;;;;0.80;0.80;;;;;;;;;;5136132;27;20361;-62
2022/08/26 16:55:09;;;;;;;0.98;0.98;;;;;;;;;;5129773;27;20312;-62
2022/08/26 16:57:56;;;;;;;0.98;0.98;;;;;;;;;;5134503;27;20257;-62
2022/08/26 17:00:44;;;;;;;0.75;0.75;;;;;;;;;;5133608;27;20593;-62
2022/08/26 17:03:32;;;;;;;0.80;0.80;;;;;;;;;;5137524;27;20211;-62
2022/08/26 17:06:18;;;;;;;0.80;0.80;;;;;;;;;;5131699;27;20209;-62